Time,TemperatureF,DewpointF,PressureIn,WindDirection,WindDirectionDegrees,WindSpeedMPH,WindSpeedGustMPH,Humidity,HourlyPrecipIn,Conditions,Clouds,dailyrainin,SoftwareType,DateUTC
2018-01-20 00:03:00,26.0,20.7,30.09,East,90,0.0,3.2,80,0.00,,,0.00,WUHU216WMR200,2018-01-20 05:03:00,
2018-01-20 00:25:00,25.6,21.2,30.09,East,90,2.6,3.2,83,0.00,,,0.00,WUHU216WMR200,2018-01-20 05:25:00,
2018-01-20 00:30:00,26.0,21.9,30.09,SSE,157,1.8,3.2,84,0.00,,,0.00,WUHU216WMR200,2018-01-20 05:30:00,
2018-01-20 00:35:00,25.8,21.4,30.09,SSE,157,0.0,3.2,83,0.00,,,0.00,WUHU216WMR200,2018-01-20 05:35:00,
2018-01-20 00:40:00,25.6,21.2,30.09,SSE,157,0.0,2.2,83,0.00,,,0.00,WUHU216WMR200,2018-01-20 05:40:00,
2018-01-20 00:46:00,25.6,20.9,30.06,SSE,157,0.0,0.0,82,0.00,,,0.00,WUHU216WMR200,2018-01-20 05:46:00,
2018-01-20 00:51:00,25.4,21.0,30.06,SSE,157,0.0,0.0,83,0.00,,,0.00,WUHU216WMR200,2018-01-20 05:51:00,
2018-01-20 00:56:00,25.4,21.3,30.06,SSE,157,0.0,0.0,84,0.00,,,0.00,WUHU216WMR200,2018-01-20 05:56:00,
2018-01-20 01:01:00,25.4,21.3,30.06,SSE,157,0.0,0.0,84,0.00,,,0.00,WUHU216WMR200,2018-01-20 06:01:00,
2018-01-20 01:06:00,25.2,21.1,30.06,SSE,157,0.0,0.0,84,0.00,,,0.00,WUHU216WMR200,2018-01-20 06:06:00,
2018-01-20 01:11:00,25.1,21.0,30.06,SSE,157,0.0,0.0,84,0.00,,,0.00,WUHU216WMR200,2018-01-20 06:11:00,
2018-01-20 01:16:00,25.2,21.1,30.06,SSE,157,0.0,0.0,84,0.00,,,0.00,WUHU216WMR200,2018-01-20 06:16:00,
2018-01-20 01:21:00,25.2,21.1,30.06,SSE,157,0.0,0.0,84,0.00,,,0.00,WUHU216WMR200,2018-01-20 06:21:00,
2018-01-20 01:26:00,25.4,21.3,30.06,SSE,157,0.0,0.0,84,0.00,,,0.00,WUHU216WMR200,2018-01-20 06:26:00,
2018-01-20 01:31:00,25.4,21.3,30.06,SSE,157,0.0,0.0,84,0.00,,,0.00,WUHU216WMR200,2018-01-20 06:31:00,
2018-01-20 01:36:00,25.2,21.1,30.06,SSE,157,0.0,3.2,84,0.00,,,0.00,WUHU216WMR200,2018-01-20 06:36:00,
2018-01-20 01:41:00,25.4,21.6,30.06,SSE,157,3.2,3.2,85,0.00,,,0.00,WUHU216WMR200,2018-01-20 06:41:00,
2018-01-20 01:46:00,25.4,21.6,30.06,SSE,157,0.0,4.4,85,0.00,,,0.00,WUHU216WMR200,2018-01-20 06:46:00,
2018-01-20 01:51:00,25.4,21.6,30.06,SSE,157,0.0,4.4,85,0.00,,,0.00,WUHU216WMR200,2018-01-20 06:51:00,
2018-01-20 01:56:00,25.1,21.3,30.06,SSE,157,0.0,0.0,85,0.00,,,0.00,WUHU216WMR200,2018-01-20 06:56:00,
2018-01-20 02:01:00,25.1,21.3,30.03,SSE,157,0.0,0.0,85,0.00,,,0.00,WUHU216WMR200,2018-01-20 07:01:00,
2018-01-20 02:06:00,24.9,21.1,30.03,SSE,157,0.0,0.0,85,0.00,,,0.00,WUHU216WMR200,2018-01-20 07:06:00,
2018-01-20 02:11:00,24.9,21.1,30.03,SW,225,0.0,4.0,85,0.00,,,0.00,WUHU216WMR200,2018-01-20 07:11:00,
2018-01-20 02:16:00,25.2,21.4,30.06,SW,225,0.0,4.0,85,0.00,,,0.00,WUHU216WMR200,2018-01-20 07:16:00,
2018-01-20 02:23:00,25.2,21.1,30.06,SW,225,0.0,0.0,84,0.00,,,0.00,WUHU216WMR200,2018-01-20 07:23:00,
2018-01-20 02:28:00,25.6,21.8,30.06,SW,225,0.0,0.0,85,0.00,,,0.00,WUHU216WMR200,2018-01-20 07:28:00,
2018-01-20 02:33:00,25.8,21.7,30.03,SW,225,0.0,0.0,84,0.00,,,0.00,WUHU216WMR200,2018-01-20 07:33:00,
2018-01-20 02:38:00,25.8,21.7,30.03,SW,225,0.0,0.0,84,0.00,,,0.00,WUHU216WMR200,2018-01-20 07:38:00,
2018-01-20 02:43:00,26.0,21.6,30.03,SW,225,0.0,0.0,83,0.00,,,0.00,WUHU216WMR200,2018-01-20 07:43:00,
2018-01-20 02:48:00,26.3,21.9,30.06,SW,225,0.0,0.0,83,0.00,,,0.00,WUHU216WMR200,2018-01-20 07:48:00,
2018-01-20 02:53:00,26.1,21.4,30.06,SW,225,0.0,0.0,82,0.00,,,0.00,WUHU216WMR200,2018-01-20 07:53:00,
2018-01-20 02:58:00,26.0,21.3,30.06,SW,225,0.0,0.0,82,0.00,,,0.00,WUHU216WMR200,2018-01-20 07:58:00,
2018-01-20 03:03:00,25.8,20.8,30.06,SW,225,0.0,0.0,81,0.00,,,0.00,WUHU216WMR200,2018-01-20 08:03:00,
2018-01-20 03:08:00,25.6,20.9,30.06,SW,225,0.0,0.0,82,0.00,,,0.00,WUHU216WMR200,2018-01-20 08:08:00,
2018-01-20 03:13:00,25.2,20.5,30.06,SW,225,0.0,0.0,82,0.00,,,0.00,WUHU216WMR200,2018-01-20 08:13:00,
2018-01-20 03:18:00,25.1,20.4,30.03,SW,225,0.0,0.0,82,0.00,,,0.00,WUHU216WMR200,2018-01-20 08:18:00,
2018-01-20 03:23:00,24.9,19.9,30.03,SW,225,0.0,0.0,81,0.00,,,0.00,WUHU216WMR200,2018-01-20 08:23:00,
2018-01-20 03:28:00,24.7,20.0,30.03,SW,225,0.0,0.0,82,0.00,,,0.00,WUHU216WMR200,2018-01-20 08:28:00,
2018-01-20 03:33:00,24.3,20.0,30.06,SW,225,0.0,0.0,83,0.00,,,0.00,WUHU216WMR200,2018-01-20 08:33:00,
2018-01-20 03:38:00,24.2,19.9,30.06,SW,225,0.0,0.0,83,0.00,,,0.00,WUHU216WMR200,2018-01-20 08:38:00,
2018-01-20 03:43:00,24.0,19.7,30.06,SW,225,0.0,0.0,83,0.00,,,0.00,WUHU216WMR200,2018-01-20 08:43:00,
2018-01-20 03:48:00,24.2,20.2,30.06,SSW,202,2.2,4.0,84,0.00,,,0.00,WUHU216WMR200,2018-01-20 08:48:00,
2018-01-20 03:53:00,24.0,20.3,30.06,SSW,202,0.0,4.0,85,0.00,,,0.00,WUHU216WMR200,2018-01-20 08:53:00,
2018-01-20 03:58:00,23.6,19.9,30.06,SSW,202,2.6,4.0,85,0.00,,,0.00,WUHU216WMR200,2018-01-20 08:58:00,
2018-01-20 04:03:00,23.8,20.4,30.06,SSW,202,1.8,4.0,87,0.00,,,0.00,WUHU216WMR200,2018-01-20 09:03:00,
2018-01-20 04:08:00,23.8,20.4,30.06,SSE,157,0.0,3.2,87,0.00,,,0.00,WUHU216WMR200,2018-01-20 09:08:00,
2018-01-20 04:13:00,23.8,20.4,30.06,SSW,202,2.2,4.0,87,0.00,,,0.00,WUHU216WMR200,2018-01-20 09:13:00,
2018-01-20 04:18:00,23.8,20.4,30.06,SW,225,2.2,5.0,87,0.00,,,0.00,WUHU216WMR200,2018-01-20 09:18:00,
2018-01-20 04:23:00,23.4,20.3,30.06,SW,225,0.0,5.0,88,0.00,,,0.00,WUHU216WMR200,2018-01-20 09:23:00,
2018-01-20 04:28:00,23.3,20.2,30.06,SW,225,0.0,3.2,88,0.00,,,0.00,WUHU216WMR200,2018-01-20 09:28:00,
2018-01-20 04:33:00,23.1,20.0,30.06,SW,225,0.0,0.0,88,0.00,,,0.00,WUHU216WMR200,2018-01-20 09:33:00,
2018-01-20 04:38:00,22.9,19.8,30.06,SW,225,0.0,0.0,88,0.00,,,0.00,WUHU216WMR200,2018-01-20 09:38:00,
2018-01-20 04:43:00,22.7,19.6,30.06,SW,225,0.0,0.0,88,0.00,,,0.00,WUHU216WMR200,2018-01-20 09:43:00,
2018-01-20 04:48:00,22.7,19.6,30.06,SSW,202,0.0,4.0,88,0.00,,,0.00,WUHU216WMR200,2018-01-20 09:48:00,
2018-01-20 04:53:00,22.7,19.6,30.06,SSW,202,0.0,4.0,88,0.00,,,0.00,WUHU216WMR200,2018-01-20 09:53:00,
2018-01-20 04:58:00,22.7,19.9,30.06,NE,45,0.0,5.0,89,0.00,,,0.00,WUHU216WMR200,2018-01-20 09:58:00,
2018-01-20 05:03:00,22.9,19.8,30.06,NE,45,0.0,5.0,88,0.00,,,0.00,WUHU216WMR200,2018-01-20 10:03:00,
2018-01-20 05:08:00,22.7,19.6,30.06,NE,45,2.6,2.6,88,0.00,,,0.00,WUHU216WMR200,2018-01-20 10:08:00,
2018-01-20 05:13:00,22.4,19.6,30.06,NE,45,3.2,3.2,89,0.00,,,0.00,WUHU216WMR200,2018-01-20 10:13:00,
2018-01-20 05:18:00,22.4,19.9,30.09,NE,45,2.6,4.4,90,0.00,,,0.00,WUHU216WMR200,2018-01-20 10:18:00,
2018-01-20 05:23:00,22.4,20.1,30.09,NE,45,2.2,4.4,91,0.00,,,0.00,WUHU216WMR200,2018-01-20 10:23:00,
2018-01-20 05:28:00,22.0,19.8,30.09,NE,45,0.0,4.0,91,0.00,,,0.00,WUHU216WMR200,2018-01-20 10:28:00,
2018-01-20 05:33:00,22.0,19.8,30.09,NE,45,0.0,2.6,91,0.00,,,0.00,WUHU216WMR200,2018-01-20 10:33:00,
2018-01-20 05:38:00,22.2,20.0,30.09,NE,45,0.0,2.6,91,0.00,,,0.00,WUHU216WMR200,2018-01-20 10:38:00,
2018-01-20 05:43:00,22.0,19.8,30.09,SSW,202,0.0,4.4,91,0.00,,,0.00,WUHU216WMR200,2018-01-20 10:43:00,
2018-01-20 05:48:00,22.0,19.8,30.12,SSW,202,0.0,4.4,91,0.00,,,0.00,WUHU216WMR200,2018-01-20 10:48:00,
2018-01-20 05:53:00,21.8,19.8,30.12,SSW,202,0.0,4.0,92,0.00,,,0.00,WUHU216WMR200,2018-01-20 10:53:00,
2018-01-20 05:58:00,21.8,19.8,30.12,SSW,202,0.0,4.0,92,0.00,,,0.00,WUHU216WMR200,2018-01-20 10:58:00,
2018-01-20 06:03:00,21.8,19.8,30.12,SSW,202,0.0,2.6,92,0.00,,,0.00,WUHU216WMR200,2018-01-20 11:03:00,
2018-01-20 06:08:00,21.8,19.8,30.12,SSW,202,0.0,0.0,92,0.00,,,0.00,WUHU216WMR200,2018-01-20 11:08:00,
2018-01-20 06:40:00,22.4,20.4,30.12,NE,45,0.0,4.4,92,0.00,,,0.00,WUHU216WMR200,2018-01-20 11:40:00,
2018-01-20 06:45:00,22.2,20.0,30.12,NE,45,0.0,4.4,91,0.00,,,0.00,WUHU216WMR200,2018-01-20 11:45:00,
2018-01-20 06:50:00,21.8,19.6,30.09,NE,45,0.0,0.0,91,0.00,,,0.00,WUHU216WMR200,2018-01-20 11:50:00,
2018-01-20 06:55:00,21.6,19.4,30.09,NE,45,0.0,0.0,91,0.00,,,0.00,WUHU216WMR200,2018-01-20 11:55:00,
2018-01-20 07:00:00,21.3,19.1,30.09,NE,45,0.0,0.0,91,0.00,,,0.00,WUHU216WMR200,2018-01-20 12:00:00,
2018-01-20 07:05:00,21.3,19.6,30.09,NE,45,0.0,0.0,93,0.00,,,0.00,WUHU216WMR200,2018-01-20 12:05:00,
2018-01-20 07:10:00,21.1,19.4,30.09,NE,45,0.0,0.0,93,0.00,,,0.00,WUHU216WMR200,2018-01-20 12:10:00,
2018-01-20 07:15:00,21.1,19.4,30.09,NE,45,0.0,5.0,93,0.00,,,0.00,WUHU216WMR200,2018-01-20 12:15:00,
2018-01-20 07:20:00,21.3,19.9,30.12,NE,45,0.0,5.0,94,0.00,,,0.00,WUHU216WMR200,2018-01-20 12:20:00,
2018-01-20 07:25:00,21.1,19.7,30.12,NE,45,0.0,0.0,94,0.00,,,0.00,WUHU216WMR200,2018-01-20 12:25:00,
2018-01-20 07:30:00,21.1,19.4,30.12,NE,45,0.0,0.0,93,0.00,,,0.00,WUHU216WMR200,2018-01-20 12:30:00,
2018-01-20 07:35:00,21.1,19.4,30.12,NE,45,0.0,0.0,93,0.00,,,0.00,WUHU216WMR200,2018-01-20 12:35:00,
2018-01-20 07:40:00,21.1,19.4,30.12,NE,45,0.0,3.2,93,0.00,,,0.00,WUHU216WMR200,2018-01-20 12:40:00,
2018-01-20 07:45:00,21.1,19.4,30.12,NE,45,0.0,3.2,93,0.00,,,0.00,WUHU216WMR200,2018-01-20 12:45:00,
2018-01-20 07:50:00,21.1,19.4,30.12,NE,45,0.0,2.6,93,0.00,,,0.00,WUHU216WMR200,2018-01-20 12:50:00,
2018-01-20 07:55:00,21.5,20.1,30.12,NE,45,0.0,0.0,94,0.00,,,0.00,WUHU216WMR200,2018-01-20 12:55:00,
2018-01-20 07:57:00,21.6,20.2,30.12,NE,45,0.0,0.0,94,0.00,,,0.00,WUHU216WMR200,2018-01-20 12:57:00,
2018-01-20 08:02:00,22.7,21.6,30.12,NE,45,0.0,0.0,95,0.00,,,0.00,WUHU216WMR200,2018-01-20 13:02:00,
2018-01-20 08:07:00,24.7,23.8,30.12,NE,45,0.0,0.0,97,0.00,,,0.00,WUHU216WMR200,2018-01-20 13:07:00,
2018-01-20 08:12:00,26.0,25.1,30.12,NE,45,0.0,0.0,97,0.00,,,0.00,WUHU216WMR200,2018-01-20 13:12:00,